Time;durP1;ratioP1;P1;durP2;ratioP2;P2;SDS_P1;SDS_P2;PMS_P1;PMS_P2;Temp;Humidity;BMP_temperature;BMP_pressure;BME280_temperature;BME280_humidity;BME280_pressure;Samples;Min_cycle;Max_cycle;Signal;HPM_P1;HPM_P2
2023/05/12 00:00:18;;;;;;;16.63;2.65;;;;;;;18.80;55.55;96099.28;5035009;28;20102;-30
2023/05/12 00:02:43;;;;;;;11.10;2.55;;;;;;;18.72;55.54;96099.00;5035199;28;20028;-30
2023/05/12 00:05:09;;;;;;;14.93;3.13;;;;;;;18.65;55.34;96102.19;5035210;28;20485;-30
2023/05/12 00:07:35;;;;;;;11.07;2.10;;;;;;;18.62;55.39;96098.44;5035226;28;20025;-30
2023/05/12 00:10:00;;;;;;;15.15;2.28;;;;;;;18.41;56.06;96098.97;5034981;28;20116;-30
2023/05/12 00:12:26;;;;;;;9.52;1.92;;;;;;;18.58;55.23;96102.63;5035296;28;20021;-31
2023/05/12 00:14:51;;;;;;;7.00;2.05;;;;;;;18.71;55.27;96100.22;5033532;28;20033;-31
2023/05/12 00:17:17;;;;;;;8.85;1.90;;;;;;;18.69;55.23;96102.72;5035030;28;20025;-30
2023/05/12 00:19:43;;;;;;;6.88;1.88;;;;;;;18.60;55.09;96100.16;5034801;28;20637;-30
2023/05/12 00:22:11;;;;;;;11.13;2.45;;;;;;;18.41;55.94;96098.97;5034879;28;20028;-30
2023/05/12 00:24:38;;;;;;;12.32;2.47;;;;;;;18.56;55.25;96094.84;5034824;28;20032;-30
2023/05/12 00:27:05;;;;;;;8.88;2.00;;;;;;;18.74;54.85;96093.78;5034608;28;20021;-33
2023/05/12 00:29:31;;;;;;;10.20;2.05;;;;;;;18.60;55.37;96094.66;5038587;28;20035;-30
2023/05/12 00:31:56;;;;;;;9.82;2.30;;;;;;;18.50;55.59;96087.81;5034641;28;20017;-30
2023/05/12 00:34:22;;;;;;;10.30;2.63;;;;;;;18.67;55.38;96085.97;5034860;28;20020;-31
2023/05/12 00:36:47;;;;;;;16.00;2.90;;;;;;;18.65;55.19;96097.47;5034626;28;20421;-31
2023/05/12 00:39:13;;;;;;;11.15;2.03;;;;;;;18.63;55.28;96088.94;5034571;28;20104;-30
2023/05/12 00:41:38;;;;;;;9.00;1.95;;;;;;;18.58;55.55;96091.63;5034496;28;20052;-30
2023/05/12 00:44:04;;;;;;;12.85;2.65;;;;;;;18.54;55.56;96091.09;5034403;28;20048;-30
2023/05/12 00:46:30;;;;;;;8.88;2.92;;;;;;;18.54;55.45;96088.34;5033286;28;20025;-31
2023/05/12 00:48:56;;;;;;;13.30;2.83;;;;;;;18.41;55.65;96098.97;5034299;28;20022;-32
2023/05/12 00:51:22;;;;;;;11.18;2.35;;;;;;;18.55;55.51;96092.56;5034279;28;20070;-31
2023/05/12 00:53:48;;;;;;;12.05;2.45;;;;;;;18.40;56.10;96102.94;5034684;28;20112;-31
2023/05/12 00:56:16;;;;;;;9.85;2.65;;;;;;;18.48;55.52;96104.75;5033805;28;20112;-30
2023/05/12 00:58:42;;;;;;;9.40;2.20;;;;;;;18.38;56.23;96094.44;5034158;28;20029;-30
2023/05/12 01:01:07;;;;;;;13.18;2.75;;;;;;;18.34;55.89;96102.13;5032626;28;20088;-32
2023/05/12 01:03:33;;;;;;;11.90;2.90;;;;;;;18.48;55.94;96093.03;5033852;28;20032;-30
2023/05/12 01:06:16;;;;;;;11.13;2.45;;;;;;;18.41;55.91;96109.94;5033841;28;20462;-31
2023/05/12 01:08:42;;;;;;;9.57;2.28;;;;;;;18.41;55.79;96098.97;5033849;28;20471;-31
2023/05/12 01:11:08;;;;;;;10.32;2.50;;;;;;;18.35;56.08;96107.13;5040885;28;20601;-31
2023/05/12 01:13:33;;;;;;;14.43;3.03;;;;;;;18.41;56.13;96087.97;5033891;28;20029;-30
2023/05/12 01:16:01;;;;;;;7.70;2.20;;;;;;;18.31;56.02;96096.38;5034016;28;20018;-30
2023/05/12 01:18:27;;;;;;;14.55;2.50;;;;;;;18.24;56.09;96085.06;5033741;28;20029;-30
2023/05/12 01:20:55;;;;;;;9.35;2.28;;;;;;;18.34;55.99;96091.16;5033859;28;20123;-30
2023/05/12 01:23:26;;;;;;;15.65;3.58;;;;;;;18.31;56.06;96084.63;5032495;28;20025;-29
2023/05/12 01:25:53;;;;;;;7.97;2.60;;;;;;;18.17;56.56;96080.78;5040635;28;20017;-30
2023/05/12 01:28:20;;;;;;;11.80;2.53;;;;;;;18.21;56.62;96070.31;5033596;28;20462;-31
2023/05/12 01:30:47;;;;;;;10.75;2.40;;;;;;;18.30;56.13;96067.41;5034067;28;20037;-31
2023/05/12 01:33:13;;;;;;;9.93;2.35;;;;;;;18.41;55.94;96096.22;5033450;28;20152;-30
2023/05/12 01:35:38;;;;;;;15.35;2.60;;;;;;;18.14;56.50;96079.00;5033537;28;20123;-31
2023/05/12 01:38:04;;;;;;;12.65;2.55;;;;;;;18.28;56.44;96086.38;5033292;28;20025;-31
2023/05/12 01:40:29;;;;;;;11.38;2.55;;;;;;;18.46;56.31;96079.03;5033575;28;20028;-31
2023/05/12 01:42:54;;;;;;;13.25;3.65;;;;;;;18.35;56.17;96084.41;5033351;28;20029;-31
2023/05/12 01:45:20;;;;;;;8.88;2.75;;;;;;;18.31;56.32;96085.38;5033132;28;20028;-30
2023/05/12 01:47:45;;;;;;;11.32;2.47;;;;;;;18.13;56.75;96080.25;5033029;28;20025;-30
2023/05/12 01:50:11;;;;;;;12.38;3.05;;;;;;;18.26;56.54;96079.88;5033275;28;20488;-30
2023/05/12 01:52:36;;;;;;;12.23;3.00;;;;;;;18.19;56.75;96070.06;5037882;28;20091;-30
2023/05/12 01:55:02;;;;;;;11.52;3.00;;;;;;;18.32;56.49;96069.66;5033122;28;20057;-31
2023/05/12 01:57:27;;;;;;;11.50;2.50;;;;;;;18.37;56.27;96076.47;5032620;28;20046;-30
2023/05/12 01:59:53;;;;;;;8.20;2.15;;;;;;;18.19;56.66;96075.53;5033086;28;20351;-30
2023/05/12 02:02:19;;;;;;;11.63;2.65;;;;;;;18.38;56.24;96069.72;5033142;28;20020;-32
2023/05/12 02:04:45;;;;;;;9.50;3.08;;;;;;;18.43;56.19;96067.00;5033030;28;20033;-30
2023/05/12 02:07:10;;;;;;;12.00;3.10;;;;;;;18.37;56.61;96070.97;5032915;28;20112;-31
2023/05/12 02:09:36;;;;;;;9.98;2.85;;;;;;;18.52;56.01;96069.59;5033051;28;20017;-30
2023/05/12 02:12:03;;;;;;;12.40;3.03;;;;;;;18.48;56.23;96074.56;5033685;28;20029;-30
2023/05/12 02:14:28;;;;;;;10.73;2.30;;;;;;;18.24;57.01;96072.09;5032726;28;20029;-30
2023/05/12 02:16:54;;;;;;;8.93;3.15;;;;;;;18.31;56.47;96074.41;5033092;28;20366;-30
2023/05/12 02:19:20;;;;;;;7.78;2.70;;;;;;;18.11;57.11;96076.47;5032744;28;20013;-30
2023/05/12 02:21:46;;;;;;;14.48;3.28;;;;;;;18.19;56.65;96077.53;5032883;28;20029;-31
2023/05/12 02:24:11;;;;;;;11.48;2.50;;;;;;;18.28;56.48;96078.16;5033127;28;20025;-30
2023/05/12 02:26:37;;;;;;;12.73;2.50;;;;;;;18.27;56.79;96082.13;5032634;28;20033;-30
2023/05/12 02:29:02;;;;;;;7.97;2.50;;;;;;;18.28;56.68;96080.88;5033243;28;20052;-30
2023/05/12 02:31:27;;;;;;;10.05;2.67;;;;;;;18.32;56.81;96075.16;5033112;28;20025;-30
2023/05/12 02:33:53;;;;;;;7.07;2.85;;;;;;;18.40;56.55;96070.75;5032920;28;20080;-31
2023/05/12 02:36:18;;;;;;;7.70;2.63;;;;;;;18.18;56.87;96065.81;5033250;28;20025;-30
2023/05/12 02:38:44;;;;;;;8.88;2.65;;;;;;;18.27;56.69;96079.38;5043910;28;20017;-31
2023/05/12 02:41:10;;;;;;;8.43;2.75;;;;;;;18.20;56.92;96068.81;5032943;28;20061;-30
2023/05/12 02:43:35;;;;;;;8.85;2.65;;;;;;;18.31;56.77;96071.66;5032829;28;20472;-30
2023/05/12 02:46:01;;;;;;;8.23;2.80;;;;;;;18.16;57.09;96079.28;5032975;28;20100;-31
2023/05/12 02:48:27;;;;;;;10.73;2.88;;;;;;;18.14;56.99;96075.50;5032763;28;20032;-30
2023/05/12 02:50:52;;;;;;;8.57;2.45;;;;;;;18.02;57.32;96080.13;5032623;28;20036;-30
2023/05/12 02:53:17;;;;;;;13.85;2.95;;;;;;;18.12;57.20;96076.00;5032753;28;20017;-30
2023/05/12 02:55:43;;;;;;;11.75;2.63;;;;;;;18.13;57.31;96076.75;5032637;28;20365;-30
2023/05/12 02:58:09;;;;;;;7.18;2.60;;;;;;;18.23;56.82;96073.34;5032381;28;20485;-30
2023/05/12 03:00:34;;;;;;;10.05;2.33;;;;;;;17.99;57.32;96075.59;5032655;28;20037;-30
2023/05/12 03:03:00;;;;;;;8.80;2.15;;;;;;;17.94;57.84;96071.56;5032608;28;20032;-31
2023/05/12 03:05:25;;;;;;;8.38;2.38;;;;;;;18.22;57.21;96082.06;5039364;28;20422;-30
2023/05/12 03:07:51;;;;;;;7.10;2.28;;;;;;;18.06;57.36;96075.16;5032632;28;20033;-32
2023/05/12 03:10:17;;;;;;;9.50;2.47;;;;;;;18.12;57.09;96072.50;5034988;28;20096;-30
2023/05/12 03:12:42;;;;;;;7.18;2.35;;;;;;;18.21;57.11;96077.81;5036112;28;20023;-30
2023/05/12 03:15:08;;;;;;;7.47;2.47;;;;;;;18.05;57.12;96070.19;5042090;28;20109;-30
2023/05/12 03:17:34;;;;;;;8.90;3.03;;;;;;;18.15;57.13;96066.78;5036336;28;20087;-30
2023/05/12 03:20:00;;;;;;;10.52;2.85;;;;;;;18.03;57.30;96065.19;5035962;28;20100;-30
2023/05/12 03:22:25;;;;;;;9.88;2.45;;;;;;;18.15;57.09;96064.06;5036054;28;20112;-30
2023/05/12 03:24:51;;;;;;;8.35;2.20;;;;;;;18.19;57.16;96063.81;5035624;28;20457;-31
2023/05/12 03:27:17;;;;;;;7.68;2.10;;;;;;;18.23;57.17;96069.84;5035831;28;20088;-30
2023/05/12 03:29:42;;;;;;;10.57;2.00;;;;;;;18.16;57.36;96062.81;5036273;28;20039;-31
2023/05/12 03:32:07;;;;;;;10.85;2.17;;;;;;;18.27;56.88;96068.41;5035766;28;20358;-31
2023/05/12 03:34:33;;;;;;;6.10;2.42;;;;;;;18.11;57.76;96060.75;5035593;28;20095;-30
2023/05/12 03:36:59;;;;;;;9.80;2.30;;;;;;;18.31;57.36;96063.44;5036072;28;20018;-31
2023/05/12 03:39:24;;;;;;;4.65;2.10;;;;;;;18.32;57.15;96066.94;5035757;28;20519;-30
2023/05/12 03:41:50;;;;;;;7.45;2.00;;;;;;;18.35;56.71;96060.47;5035281;28;20479;-30
2023/05/12 03:44:15;;;;;;;8.60;2.10;;;;;;;18.11;57.33;96065.50;5035685;28;20024;-31
2023/05/12 03:46:41;;;;;;;6.75;2.03;;;;;;;18.17;57.33;96063.56;5035583;28;20033;-30
2023/05/12 03:49:06;;;;;;;8.50;2.00;;;;;;;18.23;57.37;96056.88;5035191;28;20397;-31
2023/05/12 03:51:31;;;;;;;4.65;1.52;;;;;;;18.18;57.32;96065.81;5035340;28;20026;-30
2023/05/12 03:53:57;;;;;;;8.35;1.95;;;;;;;18.33;57.20;96062.19;5041349;28;20013;-31
2023/05/12 03:56:23;;;;;;;6.63;1.70;;;;;;;18.21;57.11;96064.09;5035224;28;20017;-30
2023/05/12 03:58:48;;;;;;;6.45;2.20;;;;;;;18.12;57.61;96061.50;5035328;28;20220;-31
2023/05/12 04:01:14;;;;;;;7.03;1.70;;;;;;;18.16;57.52;96060.06;5035246;28;20024;-30
2023/05/12 04:03:44;;;;;;;6.43;1.60;;;;;;;18.03;57.70;96050.69;5035513;28;20025;-30
2023/05/12 04:06:10;;;;;;;7.43;2.10;;;;;;;18.29;56.98;96060.44;5035055;28;20071;-30
2023/05/12 04:08:36;;;;;;;7.72;2.17;;;;;;;18.12;57.49;96061.50;5035202;28;20033;-31
2023/05/12 04:11:02;;;;;;;8.93;1.98;;;;;;;18.09;57.39;96052.25;5041370;28;20543;-30
2023/05/12 04:13:28;;;;;;;7.95;2.00;;;;;;;18.00;57.91;96054.41;5035560;28;20060;-31
2023/05/12 04:15:57;;;;;;;7.80;2.20;;;;;;;18.05;57.53;96067.44;5034902;28;20104;-30
2023/05/12 04:18:24;;;;;;;11.48;2.03;;;;;;;18.03;57.67;96056.94;5034926;28;20473;-30
2023/05/12 04:20:49;;;;;;;6.80;1.80;;;;;;;17.99;57.86;96064.63;5034656;28;20112;-30
2023/05/12 04:23:15;;;;;;;13.23;2.63;;;;;;;18.18;57.03;96067.78;5034870;28;20106;-31
2023/05/12 04:25:41;;;;;;;10.93;1.98;;;;;;;18.31;56.94;96076.41;5034763;28;20022;-31
2023/05/12 04:28:08;;;;;;;8.98;2.08;;;;;;;18.27;56.72;96084.13;5034306;28;20018;-31
2023/05/12 04:30:33;;;;;;;11.70;2.15;;;;;;;18.17;57.18;96077.28;5035097;28;20471;-30
2023/05/12 04:32:58;;;;;;;10.80;2.20;;;;;;;18.23;57.36;96086.31;5034514;28;20108;-30
2023/05/12 04:35:24;;;;;;;11.23;2.30;;;;;;;18.07;57.90;96078.66;5034435;28;20121;-31
2023/05/12 04:37:50;;;;;;;7.88;2.00;;;;;;;18.22;57.53;96087.56;5035339;28;20087;-30
2023/05/12 04:40:15;;;;;;;5.00;2.10;;;;;;;18.16;57.57;96086.75;5040301;28;20029;-31
2023/05/12 04:42:41;;;;;;;13.88;2.45;;;;;;;18.10;57.51;96091.44;5034509;28;20112;-30
2023/05/12 04:45:07;;;;;;;8.60;1.70;;;;;;;18.32;57.03;96086.13;5035160;28;20041;-30
2023/05/12 04:47:32;;;;;;;8.23;1.60;;;;;;;18.35;57.07;96089.91;5034312;28;20076;-30
2023/05/12 04:49:58;;;;;;;10.27;2.03;;;;;;;18.19;57.15;96088.50;5034483;28;20025;-30
2023/05/12 04:52:24;;;;;;;11.00;2.67;;;;;;;18.28;57.07;96085.63;5034441;28;20029;-30
2023/05/12 04:54:50;;;;;;;11.68;2.25;;;;;;;18.21;56.57;96094.28;5034363;28;20032;-31
2023/05/12 04:57:15;;;;;;;11.90;1.95;;;;;;;18.12;56.78;96089.72;5033702;28;20049;-31
2023/05/12 04:59:41;;;;;;;9.70;2.35;;;;;;;18.01;56.92;96089.59;5034210;28;20033;-30
2023/05/12 05:02:10;;;;;;;10.98;2.10;;;;;;;18.28;56.26;96097.34;5033926;28;20025;-30
2023/05/12 05:04:36;;;;;;;7.40;1.63;;;;;;;18.35;56.26;96095.41;5034062;28;20014;-30
2023/05/12 05:07:02;;;;;;;10.18;1.80;;;;;;;18.30;56.26;96099.59;5034009;28;20025;-31
2023/05/12 05:09:27;;;;;;;6.85;1.55;;;;;;;18.35;56.17;96098.16;5033681;28;20029;-31
2023/05/12 05:11:53;;;;;;;10.35;2.28;;;;;;;18.40;56.20;96105.69;5041082;28;20027;-31
2023/05/12 05:14:18;;;;;;;10.60;1.98;;;;;;;18.37;56.44;96104.66;5032458;28;20056;-30
2023/05/12 05:16:44;;;;;;;6.00;1.80;;;;;;;18.36;56.40;96100.41;5033680;28;20068;-30
2023/05/12 05:19:10;;;;;;;8.00;1.75;;;;;;;18.17;56.60;96102.75;5033631;28;20476;-30
2023/05/12 05:21:35;;;;;;;10.27;1.70;;;;;;;18.36;56.32;96100.41;5037176;28;20047;-30
2023/05/12 05:24:01;;;;;;;12.30;2.28;;;;;;;18.50;55.86;96101.53;5033834;28;20083;-31
2023/05/12 05:26:26;;;;;;;8.88;1.45;;;;;;;18.52;55.87;96096.31;5033764;28;20087;-30
2023/05/12 05:28:53;;;;;;;11.05;2.38;;;;;;;18.51;56.00;96103.78;5041251;28;20021;-30
2023/05/12 05:31:20;;;;;;;14.65;1.73;;;;;;;18.58;56.14;96108.13;5033743;28;20020;-31
2023/05/12 05:33:45;;;;;;;8.57;1.77;;;;;;;18.21;56.65;96108.75;5032770;28;20025;-30
2023/05/12 05:36:11;;;;;;;11.05;1.58;;;;;;;18.26;56.30;96110.81;5033623;28;20091;-31
2023/05/12 05:38:36;;;;;;;6.60;1.40;;;;;;;18.13;56.73;96113.19;5033659;28;20032;-30
2023/05/12 05:41:02;;;;;;;8.40;1.40;;;;;;;18.40;55.84;96113.94;5033580;28;20036;-31
2023/05/12 05:43:28;;;;;;;8.13;1.63;;;;;;;18.55;55.64;96103.56;5033767;28;20032;-30
2023/05/12 05:45:56;;;;;;;12.30;1.50;;;;;;;18.55;55.83;96112.56;5033134;28;20029;-31
2023/05/12 05:48:25;;;;;;;10.50;1.70;;;;;;;18.47;56.18;96118.97;5033594;28;20128;-30
2023/05/12 05:50:51;;;;;;;6.30;1.50;;;;;;;18.42;56.40;96116.94;5036034;28;20108;-32
2023/05/12 05:53:18;;;;;;;6.97;1.35;;;;;;;18.44;56.47;96119.94;5065974;28;20021;-30
2023/05/12 05:55:44;;;;;;;9.70;1.70;;;;;;;18.45;56.32;96124.94;5037593;28;20524;-31
2023/05/12 05:58:09;;;;;;;13.38;2.05;;;;;;;18.58;55.79;96125.34;5032685;28;20049;-30
2023/05/12 06:00:34;;;;;;;9.93;2.50;;;;;;;18.60;55.54;96124.88;5032979;28;20557;-30
2023/05/12 06:03:00;;;;;;;9.27;2.03;;;;;;;18.51;56.48;96130.50;5032735;28;20014;-31
2023/05/12 06:05:26;;;;;;;9.57;1.60;;;;;;;18.59;56.54;96132.34;5032780;28;20029;-30
2023/05/12 06:07:52;;;;;;;6.60;1.33;;;;;;;18.48;56.71;96131.47;5033033;28;20053;-31
2023/05/12 06:10:17;;;;;;;10.48;1.65;;;;;;;18.56;56.39;96132.53;5033239;28;20051;-30
2023/05/12 06:12:43;;;;;;;7.35;1.40;;;;;;;18.59;56.22;96135.09;5039860;28;20053;-31
2023/05/12 06:15:09;;;;;;;7.65;1.67;;;;;;;18.54;56.67;96143.28;5032799;28;20104;-30
2023/05/12 06:17:35;;;;;;;9.88;1.75;;;;;;;18.62;56.59;96141.63;5033141;28;20029;-30
2023/05/12 06:20:00;;;;;;;5.57;1.05;;;;;;;18.19;57.81;96138.66;5032938;28;20064;-30
2023/05/12 06:22:26;;;;;;;7.50;1.73;;;;;;;18.37;56.94;96136.84;5032966;28;20067;-30
2023/05/12 06:24:52;;;;;;;6.85;1.70;;;;;;;18.61;56.54;96140.84;5033181;28;20064;-30
2023/05/12 06:27:17;;;;;;;8.90;1.52;;;;;;;18.43;56.97;96140.41;5032888;28;20381;-30
2023/05/12 06:29:43;;;;;;;10.35;1.75;;;;;;;18.51;57.19;96146.97;5032930;28;20028;-30
2023/05/12 06:32:08;;;;;;;9.05;1.45;;;;;;;18.50;57.16;96148.22;5032398;28;20080;-29
2023/05/12 06:34:34;;;;;;;6.43;1.70;;;;;;;18.36;57.51;96151.81;5032831;28;20032;-30
2023/05/12 06:37:00;;;;;;;7.57;1.30;;;;;;;17.99;58.61;96146.19;5039854;28;20025;-30
2023/05/12 06:39:26;;;;;;;7.00;1.40;;;;;;;18.31;57.37;96140.28;5032936;28;20021;-29
2023/05/12 06:41:51;;;;;;;9.55;1.48;;;;;;;18.26;57.08;96141.00;5032435;28;20377;-30
2023/05/12 06:44:16;;;;;;;8.98;1.40;;;;;;;18.29;56.91;96148.28;5034560;28;20368;-30
2023/05/12 06:46:42;;;;;;;9.45;1.30;;;;;;;18.39;56.50;96150.84;5036612;28;20021;-30
2023/05/12 06:49:08;;;;;;;12.05;1.60;;;;;;;18.37;56.63;96147.84;5045401;28;20457;-30
2023/05/12 06:51:34;;;;;;;8.23;1.45;;;;;;;18.28;56.95;96151.50;5036686;28;20404;-32
2023/05/12 06:54:00;;;;;;;7.35;1.55;;;;;;;18.39;56.80;96159.09;5037043;28;20017;-29
2023/05/12 06:56:28;;;;;;;7.60;1.40;;;;;;;18.01;57.71;96158.19;5036278;28;20075;-30
2023/05/12 06:58:57;;;;;;;14.57;2.20;;;;;;;18.19;56.52;96160.63;5036729;28;20374;-30
2023/05/12 07:01:23;;;;;;;6.65;1.40;;;;;;;18.30;56.07;96160.00;5043152;28;20060;-30
2023/05/12 07:03:48;;;;;;;10.23;1.50;;;;;;;18.36;55.80;96165.53;5036334;28;20033;-31
2023/05/12 07:06:14;;;;;;;8.38;1.60;;;;;;;18.34;55.65;96171.53;5034829;28;20476;-29
2023/05/12 07:08:39;;;;;;;8.95;1.75;;;;;;;18.43;55.25;96163.13;5034655;28;20018;-29
2023/05/12 07:11:05;;;;;;;5.72;1.10;;;;;;;18.39;55.51;96167.34;5043060;28;20256;-30
2023/05/12 07:13:30;;;;;;;7.88;1.33;;;;;;;18.30;55.10;96170.97;5036055;28;20049;-30
2023/05/12 07:15:56;;;;;;;8.40;1.65;;;;;;;18.47;54.91;96165.66;5036217;28;20039;-29
2023/05/12 07:18:21;;;;;;;6.75;1.65;;;;;;;18.37;55.02;96165.06;5037912;28;20029;-29
2023/05/12 07:20:46;;;;;;;6.13;1.42;;;;;;;18.43;54.71;96174.09;5035977;28;20036;-31
2023/05/12 07:23:12;;;;;;;6.75;1.20;;;;;;;18.41;54.45;96171.09;5035865;28;20024;-30
2023/05/12 07:25:38;;;;;;;10.73;1.73;;;;;;;18.45;54.29;96173.63;5035710;28;20021;-29
2023/05/12 07:28:03;;;;;;;7.10;1.30;;;;;;;18.26;54.33;96175.94;5036027;28;20382;-30
2023/05/12 07:30:29;;;;;;;5.63;1.15;;;;;;;18.39;54.13;96176.31;5035804;28;20025;-29
2023/05/12 07:32:54;;;;;;;12.35;1.50;;;;;;;18.49;54.23;96165.94;5036142;28;20029;-30
2023/05/12 07:35:20;;;;;;;4.63;1.08;;;;;;;18.37;54.45;96165.06;5035916;28;20021;-30
2023/05/12 07:37:45;;;;;;;11.52;1.52;;;;;;;18.28;55.18;96167.97;5035632;28;20017;-29
2023/05/12 07:40:11;;;;;;;8.52;1.35;;;;;;;18.45;54.65;96166.13;5035681;28;20075;-29
2023/05/12 07:42:37;;;;;;;7.78;1.52;;;;;;;18.54;53.95;96168.00;5035593;28;20029;-29
2023/05/12 07:45:03;;;;;;;7.35;1.75;;;;;;;18.27;54.32;96169.97;5035596;28;20468;-32
2023/05/12 07:47:29;;;;;;;7.57;1.70;;;;;;;18.06;54.09;96162.97;5035458;28;20084;-30
2023/05/12 07:49:54;;;;;;;4.68;1.08;;;;;;;18.23;54.13;96169.41;5035519;28;20413;-29
2023/05/12 07:52:20;;;;;;;5.95;1.25;;;;;;;18.35;54.43;96170.28;5037630;28;20051;-30
2023/05/12 07:54:45;;;;;;;6.88;1.30;;;;;;;18.45;53.87;96176.38;5035049;28;20053;-29
2023/05/12 07:57:11;;;;;;;5.00;0.90;;;;;;;18.55;53.39;96172.22;5034545;28;20041;-29
2023/05/12 07:59:36;;;;;;;5.10;1.50;;;;;;;18.53;53.85;96160.97;5033818;28;20381;-29
2023/05/12 08:02:01;;;;;;;5.40;1.15;;;;;;;18.49;54.10;96168.69;5035116;28;20018;-30
2023/05/12 08:04:27;;;;;;;5.63;1.85;;;;;;;18.20;54.59;96162.13;5035117;28;20018;-29
2023/05/12 08:06:52;;;;;;;5.47;1.05;;;;;;;18.54;54.14;96162.50;5035122;28;20116;-29
2023/05/12 08:09:18;;;;;;;7.63;1.70;;;;;;;18.59;54.27;96153.56;5034843;28;20453;-31
2023/05/12 08:11:43;;;;;;;7.50;1.27;;;;;;;18.71;53.85;96148.91;5035399;28;20022;-29
2023/05/12 08:14:09;;;;;;;6.38;1.20;;;;;;;18.62;54.78;96160.84;5034948;28;20029;-29
2023/05/12 08:16:34;;;;;;;5.85;1.48;;;;;;;18.72;53.87;96153.19;5035247;28;20377;-30
2023/05/12 08:18:59;;;;;;;6.43;1.67;;;;;;;18.63;54.23;96157.63;5034830;28;20022;-30
2023/05/12 08:21:27;;;;;;;7.63;1.50;;;;;;;18.74;53.89;96154.19;5035304;28;20021;-29
2023/05/12 08:23:53;;;;;;;3.63;0.98;;;;;;;18.27;55.35;96156.25;5034545;28;20113;-30
2023/05/12 08:26:18;;;;;;;4.70;1.45;;;;;;;18.83;53.40;96161.50;5034594;28;20075;-30
2023/05/12 08:28:44;;;;;;;9.15;1.92;;;;;;;18.67;53.24;96160.88;5034156;28;20175;-29
2023/05/12 08:31:09;;;;;;;6.38;1.48;;;;;;;18.54;53.96;96157.75;5034665;28;20071;-30
2023/05/12 08:33:35;;;;;;;5.75;0.93;;;;;;;18.88;53.15;96155.31;5034567;28;20048;-30
2023/05/12 08:36:01;;;;;;;9.18;2.03;;;;;;;18.67;53.88;96153.91;5034669;28;20029;-29
2023/05/12 08:38:28;;;;;;;4.93;1.10;;;;;;;18.67;54.35;96149.88;5034747;28;20489;-29
2023/05/12 08:41:20;;;;;;;6.78;1.73;;;;;;;18.82;53.81;96155.25;5034313;28;20042;-29
2023/05/12 08:43:50;;;;;;;7.70;1.65;;;;;;;18.81;54.11;96150.25;5037542;28;20063;-30
2023/05/12 08:46:15;;;;;;;6.53;1.38;;;;;;;18.74;54.33;96147.97;5034238;28;20021;-29
2023/05/12 08:48:44;;;;;;;7.30;1.45;;;;;;;18.62;54.81;96152.59;5034358;28;20462;-30
2023/05/12 08:51:10;;;;;;;8.35;1.42;;;;;;;18.81;54.05;96145.50;5034267;28;20033;-30
2023/05/12 08:53:41;;;;;;;7.32;1.27;;;;;;;18.66;54.40;96150.41;5034520;28;20048;-30
2023/05/12 08:56:08;;;;;;;6.93;1.10;;;;;;;18.61;54.58;96156.59;5034301;28;20037;-30
2023/05/12 08:58:35;;;;;;;8.45;1.80;;;;;;;18.69;54.46;96165.88;5034264;28;20131;-30
2023/05/12 09:01:03;;;;;;;8.80;1.58;;;;;;;18.69;54.97;96162.38;5034079;28;20079;-30
2023/05/12 09:03:30;;;;;;;10.30;1.85;;;;;;;18.86;55.33;96155.03;5034154;28;20025;-31
2023/05/12 09:05:58;;;;;;;8.90;1.33;;;;;;;18.88;55.57;96158.81;5033843;28;20028;-29
2023/05/12 09:08:29;;;;;;;6.68;1.02;;;;;;;18.88;55.63;96169.81;5033135;28;20025;-30
2023/05/12 09:10:56;;;;;;;6.90;1.27;;;;;;;18.95;55.67;96176.84;5034564;28;20021;-30
2023/05/12 09:14:01;;;;;;;11.15;1.38;;;;;;;18.69;56.42;96168.63;5033718;28;20029;-29
2023/05/12 09:16:32;;;;;;;6.15;1.50;;;;;;;18.80;56.47;96167.97;5041163;28;20120;-29
2023/05/12 09:18:59;;;;;;;13.13;2.15;;;;;;;18.86;56.78;96188.03;5033738;28;20427;-30
2023/05/12 09:21:25;;;;;;;6.88;1.80;;;;;;;18.60;55.96;96177.03;5033750;28;20492;-30
2023/05/12 09:23:55;;;;;;;4.63;1.20;;;;;;;18.67;54.53;96192.34;5033688;28;20053;-29
2023/05/12 09:26:23;;;;;;;3.22;1.17;;;;;;;18.62;54.64;96191.06;5041238;28;20147;-29
2023/05/12 09:28:51;;;;;;;5.38;1.10;;;;;;;18.50;54.79;96189.41;5033750;28;20026;-30
2023/05/12 09:31:20;;;;;;;6.97;1.20;;;;;;;18.49;55.08;96185.16;5033622;28;20524;-30
2023/05/12 09:33:45;;;;;;;6.00;1.40;;;;;;;18.49;55.41;96187.91;5033431;28;20034;-29
2023/05/12 09:36:20;;;;;;;7.22;1.40;;;;;;;18.56;55.59;96181.97;5032675;28;20022;-29
2023/05/12 09:38:45;;;;;;;11.75;1.73;;;;;;;18.67;55.83;96179.34;5033528;28;20342;-29
2023/05/12 09:41:10;;;;;;;5.93;1.38;;;;;;;18.50;56.50;96178.44;5033353;28;20032;-29
2023/05/12 09:43:36;;;;;;;4.70;1.60;;;;;;;18.59;56.70;96183.78;5035807;28;20481;-31
2023/05/12 09:46:05;;;;;;;5.80;1.40;;;;;;;18.53;56.95;96177.47;5033607;28;20039;-30
2023/05/12 09:48:31;;;;;;;8.10;1.75;;;;;;;18.58;57.37;96182.25;5033278;28;20446;-31
2023/05/12 09:50:57;;;;;;;8.00;1.63;;;;;;;18.67;57.27;96184.84;5033582;28;20104;-29
2023/05/12 09:53:23;;;;;;;8.48;1.63;;;;;;;18.57;57.45;96186.22;5040368;28;20021;-29
2023/05/12 09:55:49;;;;;;;8.88;2.08;;;;;;;18.67;57.21;96182.84;5033326;28;20036;-29
2023/05/12 09:58:19;;;;;;;6.35;1.40;;;;;;;18.61;57.29;96184.03;5033278;28;20098;-29
2023/05/12 10:00:45;;;;;;;4.30;1.30;;;;;;;18.62;57.20;96174.56;5033468;28;20025;-30
2023/05/12 10:03:13;;;;;;;7.75;1.50;;;;;;;18.80;56.83;96179.72;5032889;28;20026;-30
2023/05/12 10:06:01;;;;;;;8.02;1.40;;;;;;;18.59;57.77;96176.28;5033240;28;20021;-30
2023/05/12 10:08:33;;;;;;;8.05;1.63;;;;;;;18.61;58.69;96173.06;5032944;28;20025;-31
2023/05/12 10:11:00;;;;;;;4.95;1.30;;;;;;;18.62;58.53;96175.31;5033798;28;20452;-29
2023/05/12 10:13:27;;;;;;;7.95;1.38;;;;;;;18.61;58.57;96165.56;5032909;28;20084;-29
2023/05/12 10:15:57;;;;;;;8.13;1.50;;;;;;;18.62;58.90;96166.34;5033079;28;20071;-29
2023/05/12 10:18:24;;;;;;;9.55;1.40;;;;;;;18.84;58.22;96172.03;5033568;28;20017;-29
2023/05/12 10:20:52;;;;;;;7.43;2.20;;;;;;;18.60;59.32;96166.06;5036997;28;20017;-29
2023/05/12 10:23:18;;;;;;;6.15;1.45;;;;;;;18.79;58.51;96171.97;5037138;28;20424;-29
2023/05/12 10:25:44;;;;;;;3.70;1.52;;;;;;;18.68;58.77;96175.38;5036893;28;20029;-30
2023/05/12 10:28:10;;;;;;;9.27;1.40;;;;;;;18.90;57.82;96161.09;5037043;28;20025;-29
2023/05/12 10:30:41;;;;;;;10.45;1.95;;;;;;;18.97;57.59;96157.88;5037115;28;20394;-29
2023/05/12 10:33:10;;;;;;;6.38;1.23;;;;;;;19.05;56.71;96160.91;5036849;28;20021;-30
2023/05/12 10:35:37;;;;;;;8.40;1.85;;;;;;;19.20;57.18;96175.28;5036856;28;20026;-30
2023/05/12 10:38:13;;;;;;;9.02;1.98;;;;;;;19.23;56.61;96174.31;5043974;28;20373;-30
2023/05/12 10:40:58;;;;;;;6.82;1.20;;;;;;;19.14;56.98;96169.00;5036877;28;20056;-30
2023/05/12 10:43:25;;;;;;;4.13;1.20;;;;;;;19.30;56.25;96171.84;5036737;28;20013;-30
2023/05/12 10:46:16;;;;;;;3.78;1.10;;;;;;;19.21;56.40;96163.03;5036530;28;20049;-29
2023/05/12 10:48:56;;;;;;;7.40;1.58;;;;;;;19.47;55.18;96177.47;5043697;28;20083;-30
2023/05/12 10:51:25;;;;;;;8.20;1.45;;;;;;;19.42;55.37;96169.94;5036574;28;20031;-29
2023/05/12 10:53:52;;;;;;;4.95;1.95;;;;;;;19.29;55.32;96175.84;5043906;28;20036;-30
2023/05/12 10:56:44;;;;;;;8.15;1.60;;;;;;;19.36;55.58;96174.66;5036108;28;20022;-30
2023/05/12 10:59:21;;;;;;;7.00;1.10;;;;;;;19.55;55.10;96181.28;5036229;28;20091;-30
2023/05/12 11:02:02;;;;;;;7.45;1.80;;;;;;;19.60;54.72;96182.56;5036379;28;20109;-30
2023/05/12 11:04:45;;;;;;;7.47;1.38;;;;;;;19.53;55.33;96172.78;5043770;28;20550;-30
2023/05/12 11:07:13;;;;;;;4.65;1.00;;;;;;;19.65;54.84;96181.84;5036282;28;20123;-29
2023/05/12 11:09:44;;;;;;;10.18;1.00;;;;;;;19.49;55.57;96180.50;5036500;28;20026;-30
2023/05/12 11:12:11;;;;;;;4.40;1.20;;;;;;;19.42;55.35;96178.19;5036220;28;20052;-29
2023/05/12 11:14:38;;;;;;;4.43;0.85;;;;;;;19.66;54.54;96189.59;5036579;28;20022;-30
2023/05/12 11:17:04;;;;;;;6.15;1.20;;;;;;;19.39;55.24;96190.19;5036356;28;20029;-29
2023/05/12 11:19:30;;;;;;;5.97;1.50;;;;;;;19.61;54.71;96198.59;5035685;28;20036;-30
2023/05/12 11:21:56;;;;;;;4.38;0.80;;;;;;;19.56;54.94;96199.28;5043926;28;20440;-30
2023/05/12 11:24:22;;;;;;;8.32;1.63;;;;;;;19.54;54.33;96203.78;5035792;28;20028;-30
2023/05/12 11:26:51;;;;;;;9.20;1.50;;;;;;;19.54;54.00;96210.03;5036198;28;20032;-29
2023/05/12 11:29:18;;;;;;;6.50;1.23;;;;;;;19.53;54.38;96205.81;5035619;28;20029;-30